createdAt,value
2022-10-26T04:23:03.110Z,100.00
2022-10-26T04:28:06.078Z,100.00
2022-10-26T04:45:55.199Z,100.00
2022-10-26T04:51:01.033Z,100.00
2022-10-26T04:56:06.787Z,100.00
2022-10-26T05:01:08.426Z,100.00
2022-10-26T05:06:11.405Z,100.00
2022-10-26T05:11:13.078Z,100.00
2022-10-26T05:16:16.363Z,100.00
2022-10-26T05:21:19.959Z,100.00
2022-10-26T05:26:25.291Z,100.00
2022-10-26T05:31:29.893Z,100.00
2022-10-26T05:36:32.214Z,100.00
2022-10-26T05:41:33.955Z,100.00
2022-10-26T05:46:35.659Z,100.00
2022-10-26T05:51:37.645Z,100.00
2022-10-26T05:56:40.842Z,100.00
2022-10-26T06:02:09.592Z,100.00
2022-10-26T06:07:14.716Z,100.00
2022-10-26T06:12:19.341Z,100.00
2022-10-26T06:17:49.111Z,100.00
2022-10-26T06:23:17.962Z,100.00
2022-10-26T06:28:38.822Z,100.00
2022-10-26T06:33:41.231Z,100.00
2022-10-26T06:38:44.717Z,100.00
2022-10-26T06:43:46.813Z,100.00
2022-10-26T06:49:08.709Z,100.00
2022-10-26T06:54:27.705Z,100.00
2022-10-26T06:59:53.245Z,100.00
2022-10-26T07:04:54.792Z,100.00
2022-10-26T07:09:56.340Z,100.00
2022-10-26T07:14:57.918Z,100.00
2022-10-26T07:19:59.488Z,100.00
2022-10-26T07:25:03.072Z,100.00
2022-10-26T07:30:05.490Z,100.00
2022-10-26T07:35:07.395Z,100.00
2022-10-26T07:40:09.193Z,100.00
2022-10-26T07:45:11.045Z,100.00
2022-10-26T07:50:13.005Z,100.00
2022-10-26T07:55:14.718Z,100.00
2022-10-26T08:00:16.447Z,100.00
2022-10-26T08:05:18.094Z,100.00
2022-10-26T08:10:19.777Z,100.00
2022-10-26T08:15:21.459Z,100.00
2022-10-26T08:20:22.984Z,100.00
2022-10-26T08:25:26.084Z,100.00
2022-10-26T08:30:30.275Z,100.00
2022-10-26T08:35:32.982Z,100.00
2022-10-26T08:40:40.017Z,100.00
2022-10-26T08:45:48.862Z,100.00
2022-10-26T08:50:54.614Z,100.00
2022-10-26T08:56:11.553Z,100.00
2022-10-26T09:01:13.516Z,100.00
2022-10-26T09:06:26.774Z,100.00
2022-10-26T09:12:07.595Z,100.00
2022-10-26T09:17:12.605Z,100.00
2022-10-26T09:22:22.112Z,100.00
2022-10-26T09:27:28.778Z,100.00
2022-10-26T09:32:40.766Z,100.00
2022-10-26T09:37:51.804Z,100.00
2022-10-26T09:43:10.231Z,100.00
2022-10-26T09:48:39.727Z,100.00
2022-10-26T09:53:41.233Z,100.00
2022-10-26T09:58:50.825Z,100.00
2022-10-26T10:04:14.182Z,100.00
2022-10-26T10:09:24.278Z,100.00
2022-10-26T10:14:29.056Z,100.00
2022-10-26T10:19:33.211Z,100.00
2022-10-26T10:24:41.614Z,98.98
2022-10-26T10:29:45.673Z,97.82
2022-10-26T10:34:52.612Z,95.20
2022-10-26T10:39:59.525Z,94.44
2022-10-26T10:45:02.949Z,93.12
2022-10-26T10:50:20.344Z,90.60
2022-10-26T10:55:22.649Z,89.35
2022-10-26T11:00:25.616Z,88.79
2022-10-26T11:06:00.265Z,87.89
2022-10-26T11:11:11.955Z,87.90
2022-10-26T11:16:29.097Z,85.90
2022-10-26T11:21:33.657Z,85.15
2022-10-26T11:26:43.667Z,82.51
2022-10-26T11:31:54.569Z,82.04
2022-10-26T11:37:03.669Z,80.21
2022-10-26T11:42:41.379Z,78.70
2022-10-26T11:47:49.990Z,80.24
2022-10-26T11:53:15.755Z,78.24
2022-10-26T11:58:17.739Z,78.39
2022-10-26T12:03:27.031Z,79.38
2022-10-26T12:08:53.206Z,78.89
2022-10-26T12:14:15.824Z,78.67
2022-10-26T12:19:24.832Z,79.06
2022-10-26T12:24:35.505Z,78.69
2022-10-26T12:29:45.983Z,78.56
2022-10-26T12:35:00.360Z,78.21
2022-10-26T12:40:33.218Z,78.04
2022-10-26T12:45:34.850Z,78.18
2022-10-26T12:50:36.536Z,78.33
2022-10-26T12:55:50.011Z,78.38
2022-10-26T13:01:00.773Z,78.31
2022-10-26T13:06:14.620Z,78.05
2022-10-26T13:11:19.241Z,77.69
2022-10-26T13:16:20.951Z,78.07
2022-10-26T13:21:24.526Z,78.13
2022-10-26T13:26:28.056Z,77.94
2022-10-26T13:31:32.738Z,78.03
2022-10-26T13:36:56.054Z,77.28
2022-10-26T13:41:59.665Z,77.38
2022-10-26T13:47:05.041Z,76.87
2022-10-26T13:52:15.724Z,76.85
2022-10-26T13:57:34.326Z,77.17
2022-10-26T14:02:42.910Z,76.90
2022-10-26T14:08:16.892Z,77.35
2022-10-26T14:13:23.571Z,77.54
2022-10-26T14:18:28.333Z,77.88
2022-10-26T14:23:55.790Z,77.85
2022-10-26T14:29:00.263Z,78.13
2022-10-26T14:34:04.694Z,78.37
2022-10-26T14:44:58.801Z,78.86
2022-10-26T14:50:02.360Z,79.17
2022-10-26T14:55:10.461Z,79.17
2022-10-26T15:00:38.632Z,79.36
2022-10-26T15:05:40.767Z,79.88
2022-10-26T15:10:42.342Z,80.16
2022-10-26T15:15:47.061Z,80.32
2022-10-26T15:26:36.548Z,80.66
2022-10-26T15:31:38.839Z,80.75
2022-10-26T15:36:41.816Z,81.07
2022-10-26T15:41:47.638Z,81.57
2022-10-26T15:53:13.514Z,83.95
2022-10-26T16:10:26.576Z,89.43
2022-10-26T16:15:28.104Z,91.16
2022-10-26T16:26:08.061Z,93.47
2022-10-26T16:31:15.171Z,96.19
2022-10-26T16:36:17.095Z,96.67
2022-10-26T16:41:18.897Z,97.73
2022-10-26T16:46:21.822Z,99.43
2022-10-26T16:51:29.538Z,100.00
2022-10-26T16:56:31.164Z,100.00
2022-10-26T17:01:33.675Z,100.00
2022-10-26T17:06:37.833Z,100.00
2022-10-26T17:11:40.173Z,100.00
2022-10-26T17:16:41.882Z,100.00
2022-10-26T17:21:44.443Z,100.00
2022-10-26T17:26:46.027Z,100.00
2022-10-26T17:31:47.812Z,100.00
2022-10-26T17:36:49.548Z,100.00
2022-10-26T17:41:51.106Z,100.00
2022-10-26T17:46:52.689Z,100.00
2022-10-26T17:51:54.407Z,100.00
2022-10-26T17:56:56.028Z,100.00
2022-10-26T18:01:57.694Z,100.00
2022-10-26T18:06:59.343Z,100.00
2022-10-26T18:12:00.895Z,100.00
2022-10-26T18:17:02.464Z,100.00
2022-10-26T18:22:04.295Z,100.00
2022-10-26T18:27:06.038Z,100.00
2022-10-26T18:32:07.834Z,100.00
2022-10-26T18:37:09.386Z,100.00
2022-10-26T18:42:10.926Z,100.00
2022-10-26T18:47:12.515Z,100.00
2022-10-26T18:52:14.290Z,100.00
2022-10-26T18:57:16.134Z,100.00
2022-10-26T19:02:17.731Z,100.00
2022-10-26T19:07:19.693Z,100.00
2022-10-26T19:12:21.480Z,100.00
2022-10-26T19:17:23.289Z,100.00
2022-10-26T19:22:24.995Z,100.00
2022-10-26T19:27:26.666Z,100.00
2022-10-26T19:32:28.966Z,100.00
2022-10-26T19:49:17.067Z,100.00
2022-10-26T20:17:18.902Z,100.00
2022-10-26T20:28:12.275Z,100.00
2022-10-26T20:38:52.655Z,100.00
2022-10-26T21:14:06.521Z,100.00
2022-10-26T21:19:08.488Z,100.00
2022-10-26T21:24:10.105Z,100.00
2022-10-26T21:29:17.185Z,100.00
2022-10-26T21:34:18.966Z,100.00
2022-10-26T21:39:20.649Z,100.00
2022-10-26T21:44:38.756Z,100.00
2022-10-26T21:49:42.628Z,100.00
2022-10-26T21:54:44.431Z,100.00
2022-10-26T21:59:46.129Z,100.00
2022-10-26T22:04:48.072Z,100.00
2022-10-26T22:10:07.840Z,100.00
2022-10-26T22:15:11.613Z,100.00
2022-10-26T22:20:13.377Z,100.00
2022-10-26T22:25:15.115Z,100.00
2022-10-26T22:30:16.861Z,100.00
2022-10-26T22:35:28.997Z,100.00
2022-10-26T22:40:31.031Z,100.00
2022-10-26T22:45:32.781Z,100.00
2022-10-26T22:50:34.470Z,100.00
2022-10-26T22:55:36.215Z,100.00
2022-10-26T23:00:37.965Z,100.00
2022-10-26T23:05:46.030Z,100.00
2022-10-26T23:10:47.784Z,100.00
2022-10-26T23:15:49.552Z,100.00
2022-10-26T23:20:52.257Z,100.00
2022-10-26T23:25:54.126Z,100.00
2022-10-26T23:30:55.908Z,100.00
2022-10-26T23:35:57.808Z,100.00
2022-10-26T23:41:02.608Z,100.00
2022-10-26T23:46:04.808Z,100.00
2022-10-26T23:51:06.564Z,100.00
2022-10-26T23:56:08.335Z,100.00
